createdAt,value
2016-11-20T00:00:04.108Z,4.5
2016-11-20T00:05:03.855Z,4.5
2016-11-20T00:10:04.497Z,4.5
2016-11-20T00:15:04.151Z,4.5
2016-11-20T00:20:03.942Z,4.5
2016-11-20T00:25:04.615Z,4.8
2016-11-20T00:30:04.597Z,4.8
2016-11-20T00:35:04.523Z,4.8
2016-11-20T00:40:04.910Z,5.0
2016-11-20T00:45:04.528Z,5.0
2016-11-20T00:50:03.928Z,5.0
2016-11-20T00:55:04.658Z,5.0
2016-11-20T01:00:04.541Z,5.0
2016-11-20T01:05:03.827Z,5.3
2016-11-20T01:10:04.159Z,5.3
2016-11-20T01:15:03.795Z,5.3
2016-11-20T01:20:04.388Z,5.4
2016-11-20T01:25:04.006Z,5.4
2016-11-20T01:30:03.955Z,5.4
2016-11-20T01:35:03.786Z,5.5
2016-11-20T01:40:03.834Z,5.4
2016-11-20T01:45:04.748Z,5.4
2016-11-20T01:50:04.831Z,5.5
2016-11-20T01:55:04.461Z,5.8
2016-11-20T02:00:04.632Z,5.8
2016-11-20T02:05:04.666Z,5.8
2016-11-20T02:10:03.960Z,5.5
2016-11-20T02:15:04.381Z,5.8
2016-11-20T02:20:04.274Z,5.9
2016-11-20T02:25:04.710Z,5.8
2016-11-20T02:30:03.924Z,5.9
2016-11-20T02:35:04.784Z,5.9
2016-11-20T02:40:03.719Z,5.9
2016-11-20T02:45:03.955Z,5.9
2016-11-20T02:50:04.544Z,5.9
2016-11-20T02:55:04.441Z,5.9
2016-11-20T03:00:04.579Z,5.9
2016-11-20T03:05:09.452Z,5.9
2016-11-20T03:10:04.423Z,5.9
2016-11-20T03:15:04.725Z,5.9
2016-11-20T03:20:03.696Z,5.9
2016-11-20T03:25:03.773Z,5.9
2016-11-20T03:30:03.859Z,5.8
2016-11-20T03:35:03.921Z,5.8
2016-11-20T03:40:03.931Z,5.9
2016-11-20T03:45:04.104Z,5.9
2016-11-20T03:50:04.767Z,5.9
2016-11-20T03:55:04.503Z,5.9
2016-11-20T04:00:04.737Z,6.0
2016-11-20T04:05:05.539Z,6.0
2016-11-20T04:10:04.616Z,6.1
2016-11-20T04:15:04.453Z,6.1
2016-11-20T04:20:04.325Z,6.1
2016-11-20T04:25:04.270Z,6.1
2016-11-20T04:30:04.116Z,6.1
2016-11-20T04:35:03.729Z,6.1
2016-11-20T04:40:04.335Z,6.0
2016-11-20T04:45:04.363Z,6.1
2016-11-20T04:50:04.359Z,6.1
2016-11-20T04:55:04.412Z,6.1
2016-11-20T05:00:04.689Z,6.1
2016-11-20T05:05:04.116Z,6.5
2016-11-20T05:10:04.279Z,6.5
2016-11-20T05:15:04.402Z,6.5
2016-11-20T05:20:04.962Z,6.5
2016-11-20T05:25:04.141Z,6.5
2016-11-20T05:30:04.278Z,6.6
2016-11-20T05:35:03.928Z,6.6
2016-11-20T05:40:04.462Z,6.9
2016-11-20T05:45:04.725Z,7.0
2016-11-20T05:50:03.998Z,7.0
2016-11-20T05:55:04.477Z,7.1
2016-11-20T06:00:03.753Z,7.4
2016-11-20T06:05:04.447Z,7.4
2016-11-20T06:10:04.707Z,7.5
2016-11-20T06:15:04.310Z,7.5
2016-11-20T06:20:04.510Z,7.5
2016-11-20T06:25:04.446Z,7.9
2016-11-20T06:30:03.936Z,7.9
2016-11-20T06:35:04.599Z,8.0
2016-11-20T06:40:03.959Z,8.0
2016-11-20T06:45:04.732Z,8.0
2016-11-20T06:50:04.493Z,7.1
2016-11-20T06:55:04.862Z,6.5
2016-11-20T07:00:04.335Z,7.6
2016-11-20T07:05:04.710Z,8.0
2016-11-20T07:10:04.131Z,8.1
2016-11-20T07:15:04.325Z,7.0
2016-11-20T07:20:04.526Z,5.3
2016-11-20T07:25:04.347Z,6.0
2016-11-20T07:30:04.138Z,5.4
2016-11-20T07:35:04.708Z,5.8
2016-11-20T07:40:04.627Z,5.9
2016-11-20T07:45:03.787Z,5.3
2016-11-20T07:50:04.537Z,5.0
2016-11-20T07:55:04.143Z,5.0
2016-11-20T08:00:03.926Z,4.8
2016-11-20T08:05:04.153Z,4.8
2016-11-20T08:10:03.962Z,4.8
2016-11-20T08:15:03.861Z,5.0
2016-11-20T08:20:04.693Z,5.0
2016-11-20T08:25:03.914Z,5.0
2016-11-20T08:30:04.243Z,5.0
2016-11-20T08:35:04.460Z,5.3
2016-11-20T08:40:04.603Z,5.3
2016-11-20T08:45:03.867Z,5.4
2016-11-20T08:50:04.044Z,5.5
2016-11-20T08:55:04.305Z,5.8
2016-11-20T09:00:04.886Z,5.8
2016-11-20T09:05:03.949Z,6.0
2016-11-20T09:10:04.417Z,6.5
2016-11-20T09:15:04.849Z,9.6
2016-11-20T09:20:04.775Z,9.5
2016-11-20T09:25:03.976Z,9.3
2016-11-20T09:30:03.982Z,8.6
2016-11-20T09:35:04.867Z,8.3
2016-11-20T09:40:04.149Z,8.8
2016-11-20T09:45:04.624Z,8.8
2016-11-20T09:50:04.455Z,9.5
2016-11-20T09:55:04.635Z,10.5
2016-11-20T10:00:04.015Z,9.6
2016-11-20T10:05:04.055Z,10.5
2016-11-20T10:10:04.261Z,10.3
2016-11-20T10:15:04.193Z,10.1
2016-11-20T10:20:04.207Z,10.1
2016-11-20T10:25:04.696Z,10.5
2016-11-20T10:30:04.142Z,10.1
2016-11-20T10:35:04.324Z,10.1
2016-11-20T10:40:04.626Z,10.3
2016-11-20T10:45:03.947Z,10.6
2016-11-20T10:50:03.843Z,10.6
2016-11-20T10:55:04.140Z,11.1
2016-11-20T11:00:04.394Z,11.6
2016-11-20T11:05:04.061Z,11.3
2016-11-20T11:10:04.372Z,11.6
2016-11-20T11:15:04.103Z,11.3
2016-11-20T11:20:03.953Z,11.8
2016-11-20T11:25:04.535Z,11.8
2016-11-20T11:30:04.724Z,12.3
2016-11-20T11:35:04.918Z,12.6
2016-11-20T11:40:03.946Z,12.8
2016-11-20T11:45:04.673Z,13.1
2016-11-20T11:50:04.686Z,13.3
2016-11-20T11:55:04.465Z,13.3
2016-11-20T12:00:04.422Z,13.3
2016-11-20T12:05:04.266Z,13.3
2016-11-20T12:10:03.834Z,13.5
2016-11-20T12:15:04.554Z,13.6
2016-11-20T12:20:04.242Z,13.6
2016-11-20T12:25:04.087Z,13.8
2016-11-20T12:30:04.618Z,13.8
2016-11-20T12:35:04.790Z,13.8
2016-11-20T12:40:04.515Z,13.8
2016-11-20T12:45:04.093Z,13.8
2016-11-20T12:50:04.984Z,14.1
2016-11-20T12:55:04.345Z,14.3
2016-11-20T13:00:04.291Z,14.1
2016-11-20T13:05:04.733Z,13.8
2016-11-20T13:10:04.682Z,13.6
2016-11-20T13:15:04.478Z,13.6
2016-11-20T13:20:04.497Z,13.6
2016-11-20T13:25:04.466Z,13.6
2016-11-20T13:30:04.046Z,13.6
2016-11-20T13:35:03.777Z,13.6
2016-11-20T13:40:04.405Z,13.6
2016-11-20T13:45:04.877Z,13.6
2016-11-20T13:50:04.185Z,13.6
2016-11-20T13:55:04.537Z,13.6
2016-11-20T14:00:04.705Z,13.5
2016-11-20T14:05:04.523Z,13.5
2016-11-20T14:10:03.760Z,13.3
2016-11-20T14:15:04.876Z,13.1
2016-11-20T14:20:04.632Z,13.1
2016-11-20T14:25:04.324Z,13.1
2016-11-20T14:30:03.874Z,13.1
2016-11-20T14:35:04.679Z,12.8
2016-11-20T14:40:03.947Z,12.8
2016-11-20T14:45:04.515Z,12.8
2016-11-20T14:50:04.129Z,12.6
2016-11-20T14:55:04.589Z,12.5
2016-11-20T15:00:04.028Z,12.6
2016-11-20T15:05:04.430Z,12.6
2016-11-20T15:10:04.052Z,12.5
2016-11-20T15:15:03.906Z,12.5
2016-11-20T15:20:04.486Z,12.5
2016-11-20T15:25:03.766Z,12.5
2016-11-20T15:30:04.554Z,12.3
2016-11-20T15:35:04.032Z,12.3
2016-11-20T15:40:04.063Z,12.1
2016-11-20T15:45:04.060Z,12.0
2016-11-20T15:50:04.620Z,12.0
2016-11-20T15:55:03.982Z,12.1
2016-11-20T16:00:04.893Z,12.1
2016-11-20T16:05:04.278Z,12.1
2016-11-20T16:10:04.522Z,12.1
2016-11-20T16:15:04.499Z,12.0
2016-11-20T16:20:04.525Z,12.0
2016-11-20T16:25:04.592Z,12.0
2016-11-20T16:30:04.660Z,11.8
2016-11-20T16:35:04.441Z,11.8
2016-11-20T16:40:03.997Z,12.0
2016-11-20T16:45:04.385Z,11.8
2016-11-20T16:50:04.896Z,12.0
2016-11-20T16:55:04.439Z,11.8
2016-11-20T17:00:04.364Z,12.0
2016-11-20T17:05:04.804Z,11.6
2016-11-20T17:10:04.799Z,11.6
2016-11-20T17:15:03.964Z,11.3
2016-11-20T17:20:03.903Z,11.3
2016-11-20T17:25:04.729Z,11.3
2016-11-20T17:30:04.490Z,11.3
2016-11-20T17:35:03.958Z,11.0
2016-11-20T17:40:04.268Z,11.0
2016-11-20T17:45:04.017Z,11.1
2016-11-20T17:50:04.026Z,11.0
2016-11-20T17:55:04.010Z,11.0
2016-11-20T18:00:04.504Z,11.3
2016-11-20T18:05:03.687Z,11.3
2016-11-20T18:10:04.375Z,11.3
2016-11-20T18:15:03.924Z,11.3
2016-11-20T18:20:04.224Z,11.0
2016-11-20T18:25:04.062Z,10.8
2016-11-20T18:30:04.957Z,10.8
2016-11-20T18:35:04.355Z,10.6
2016-11-20T18:40:04.493Z,10.3
2016-11-20T18:45:04.712Z,10.3
2016-11-20T18:50:04.683Z,10.3
2016-11-20T18:55:04.218Z,10.3
2016-11-20T19:00:04.008Z,10.1
2016-11-20T19:05:04.715Z,10.1
2016-11-20T19:10:04.215Z,10.1
2016-11-20T19:15:04.079Z,10.3
2016-11-20T19:20:04.240Z,10.1
2016-11-20T19:25:04.683Z,10.1
2016-11-20T19:30:04.674Z,10.1
2016-11-20T19:35:04.751Z,10.1
2016-11-20T19:40:03.938Z,10.1
2016-11-20T19:45:04.492Z,10.1
2016-11-20T19:50:04.535Z,10.0
2016-11-20T19:55:03.931Z,10.1
2016-11-20T20:00:04.804Z,10.1
2016-11-20T20:05:04.625Z,10.1
2016-11-20T20:10:04.271Z,10.3
2016-11-20T20:15:04.244Z,10.3
2016-11-20T20:20:04.597Z,10.5
2016-11-20T20:25:04.175Z,10.6
2016-11-20T20:30:03.944Z,10.6
2016-11-20T20:35:04.690Z,10.8
2016-11-20T20:40:03.896Z,10.6
2016-11-20T20:45:04.596Z,10.6
2016-11-20T20:50:03.998Z,10.6
2016-11-20T20:55:04.272Z,10.5
2016-11-20T21:00:04.709Z,10.5
2016-11-20T21:05:04.815Z,10.1
2016-11-20T21:10:04.220Z,10.1
2016-11-20T21:15:04.251Z,10.0
2016-11-20T21:20:03.877Z,10.1
2016-11-20T21:25:04.114Z,9.8
2016-11-20T21:30:04.788Z,9.6
2016-11-20T21:35:04.427Z,9.6
2016-11-20T21:40:04.538Z,9.5
2016-11-20T21:45:03.884Z,9.1
2016-11-20T21:50:04.552Z,9.3
2016-11-20T21:55:04.309Z,9.3
2016-11-20T22:00:04.103Z,9.3
2016-11-20T22:05:04.381Z,9.3
2016-11-20T22:10:04.042Z,9.6
2016-11-20T22:15:04.498Z,9.8
2016-11-20T22:20:04.201Z,9.8
2016-11-20T22:25:04.535Z,10.0
2016-11-20T22:30:03.881Z,10.0
2016-11-20T22:35:04.215Z,10.1
2016-11-20T22:40:03.970Z,10.1
2016-11-20T22:45:04.060Z,10.1
2016-11-20T22:50:04.706Z,10.1
2016-11-20T22:55:04.106Z,10.1
2016-11-20T23:00:04.494Z,10.1
2016-11-20T23:05:03.968Z,10.1
2016-11-20T23:10:04.919Z,10.1
2016-11-20T23:15:04.871Z,10.1
2016-11-20T23:20:04.830Z,10.3
2016-11-20T23:25:04.725Z,10.1
2016-11-20T23:30:04.779Z,10.1
2016-11-20T23:35:04.511Z,10.3
2016-11-20T23:40:03.909Z,10.3
2016-11-20T23:45:04.258Z,10.3
2016-11-20T23:50:04.242Z,10.3
2016-11-20T23:55:04.605Z,10.3
